sensor_id;sensor_type;location;lat;lon;timestamp;P1;durP1;ratioP1;P2;durP2;ratioP2
12441;SDS011;6285;48.804;9.220;2022-12-07T00:01:03;7.88;;;7.07;;
12441;SDS011;6285;48.804;9.220;2022-12-07T00:03:31;8.35;;;7.00;;
12441;SDS011;6285;48.804;9.220;2022-12-07T00:05:58;8.63;;;6.80;;
12441;SDS011;6285;48.804;9.220;2022-12-07T00:08:27;7.53;;;6.15;;
12441;SDS011;6285;48.804;9.220;2022-12-07T00:10:54;8.70;;;6.65;;
12441;SDS011;6285;48.804;9.220;2022-12-07T00:13:21;7.40;;;6.65;;
12441;SDS011;6285;48.804;9.220;2022-12-07T00:15:48;9.15;;;6.45;;
12441;SDS011;6285;48.804;9.220;2022-12-07T00:18:15;7.72;;;6.38;;
12441;SDS011;6285;48.804;9.220;2022-12-07T00:20:42;7.88;;;6.60;;
12441;SDS011;6285;48.804;9.220;2022-12-07T00:23:09;7.95;;;7.13;;
12441;SDS011;6285;48.804;9.220;2022-12-07T00:25:38;8.77;;;7.45;;
12441;SDS011;6285;48.804;9.220;2022-12-07T00:28:05;8.57;;;7.60;;
12441;SDS011;6285;48.804;9.220;2022-12-07T00:30:34;8.80;;;7.90;;
12441;SDS011;6285;48.804;9.220;2022-12-07T00:33:01;9.70;;;7.25;;
12441;SDS011;6285;48.804;9.220;2022-12-07T00:35:28;9.10;;;7.45;;
12441;SDS011;6285;48.804;9.220;2022-12-07T00:37:55;8.82;;;7.93;;
12441;SDS011;6285;48.804;9.220;2022-12-07T00:40:23;8.80;;;7.47;;
12441;SDS011;6285;48.804;9.220;2022-12-07T00:42:51;9.10;;;7.38;;
12441;SDS011;6285;48.804;9.220;2022-12-07T00:45:18;9.27;;;8.00;;
12441;SDS011;6285;48.804;9.220;2022-12-07T00:47:45;10.95;;;8.15;;
12441;SDS011;6285;48.804;9.220;2022-12-07T00:50:12;8.93;;;8.02;;
12441;SDS011;6285;48.804;9.220;2022-12-07T00:52:39;11.95;;;8.68;;
12441;SDS011;6285;48.804;9.220;2022-12-07T00:55:07;9.68;;;7.93;;
12441;SDS011;6285;48.804;9.220;2022-12-07T00:57:34;9.43;;;7.90;;
12441;SDS011;6285;48.804;9.220;2022-12-07T01:00:03;10.07;;;8.15;;
12441;SDS011;6285;48.804;9.220;2022-12-07T01:02:30;10.18;;;7.80;;
12441;SDS011;6285;48.804;9.220;2022-12-07T01:04:57;10.52;;;7.95;;
12441;SDS011;6285;48.804;9.220;2022-12-07T01:07:24;8.73;;;7.80;;
12441;SDS011;6285;48.804;9.220;2022-12-07T01:09:52;10.38;;;8.35;;
12441;SDS011;6285;48.804;9.220;2022-12-07T01:12:19;10.55;;;8.35;;
12441;SDS011;6285;48.804;9.220;2022-12-07T01:14:46;10.02;;;8.50;;
12441;SDS011;6285;48.804;9.220;2022-12-07T01:17:15;8.93;;;8.00;;
12441;SDS011;6285;48.804;9.220;2022-12-07T01:19:42;9.35;;;7.90;;
12441;SDS011;6285;48.804;9.220;2022-12-07T01:22:09;10.65;;;8.50;;
12441;SDS011;6285;48.804;9.220;2022-12-07T01:24:36;10.10;;;8.20;;
12441;SDS011;6285;48.804;9.220;2022-12-07T01:27:03;9.75;;;8.15;;
12441;SDS011;6285;48.804;9.220;2022-12-07T01:29:30;9.50;;;8.15;;
12441;SDS011;6285;48.804;9.220;2022-12-07T01:31:57;12.10;;;8.90;;
12441;SDS011;6285;48.804;9.220;2022-12-07T01:34:26;10.77;;;9.00;;
12441;SDS011;6285;48.804;9.220;2022-12-07T01:36:53;11.43;;;8.88;;
12441;SDS011;6285;48.804;9.220;2022-12-07T01:39:20;11.63;;;8.63;;
12441;SDS011;6285;48.804;9.220;2022-12-07T01:41:47;10.13;;;8.38;;
12441;SDS011;6285;48.804;9.220;2022-12-07T01:44:19;12.25;;;8.30;;
12441;SDS011;6285;48.804;9.220;2022-12-07T01:46:47;11.13;;;9.13;;
12441;SDS011;6285;48.804;9.220;2022-12-07T01:49:16;10.40;;;8.70;;
12441;SDS011;6285;48.804;9.220;2022-12-07T01:51:45;11.15;;;8.73;;
12441;SDS011;6285;48.804;9.220;2022-12-07T01:54:13;11.27;;;8.75;;
12441;SDS011;6285;48.804;9.220;2022-12-07T01:56:41;10.88;;;8.85;;
12441;SDS011;6285;48.804;9.220;2022-12-07T01:59:09;11.38;;;9.00;;
12441;SDS011;6285;48.804;9.220;2022-12-07T02:01:36;10.35;;;8.93;;
12441;SDS011;6285;48.804;9.220;2022-12-07T02:04:04;10.93;;;9.05;;
12441;SDS011;6285;48.804;9.220;2022-12-07T02:06:31;10.90;;;8.70;;
12441;SDS011;6285;48.804;9.220;2022-12-07T02:08:59;11.50;;;8.52;;
12441;SDS011;6285;48.804;9.220;2022-12-07T02:11:26;9.30;;;7.93;;
12441;SDS011;6285;48.804;9.220;2022-12-07T02:13:54;11.40;;;8.82;;
12441;SDS011;6285;48.804;9.220;2022-12-07T02:16:25;10.52;;;8.88;;
12441;SDS011;6285;48.804;9.220;2022-12-07T02:18:56;10.35;;;8.77;;
12441;SDS011;6285;48.804;9.220;2022-12-07T02:21:29;11.25;;;8.35;;
12441;SDS011;6285;48.804;9.220;2022-12-07T02:24:10;10.15;;;8.40;;
12441;SDS011;6285;48.804;9.220;2022-12-07T02:29:27;9.93;;;8.30;;
12441;SDS011;6285;48.804;9.220;2022-12-07T02:32:02;10.73;;;8.50;;
12441;SDS011;6285;48.804;9.220;2022-12-07T02:34:34;10.10;;;8.90;;
12441;SDS011;6285;48.804;9.220;2022-12-07T02:37:03;11.25;;;8.98;;
12441;SDS011;6285;48.804;9.220;2022-12-07T02:39:34;10.70;;;9.05;;
12441;SDS011;6285;48.804;9.220;2022-12-07T02:42:07;9.90;;;8.18;;
12441;SDS011;6285;48.804;9.220;2022-12-07T02:44:41;11.07;;;8.38;;
12441;SDS011;6285;48.804;9.220;2022-12-07T02:47:09;10.77;;;8.02;;
12441;SDS011;6285;48.804;9.220;2022-12-07T02:49:38;12.88;;;9.65;;
12441;SDS011;6285;48.804;9.220;2022-12-07T02:52:06;9.93;;;8.38;;
12441;SDS011;6285;48.804;9.220;2022-12-07T02:54:33;11.32;;;8.68;;
12441;SDS011;6285;48.804;9.220;2022-12-07T02:57:01;9.63;;;8.27;;
12441;SDS011;6285;48.804;9.220;2022-12-07T02:59:31;11.90;;;9.00;;
12441;SDS011;6285;48.804;9.220;2022-12-07T03:02:05;10.55;;;8.75;;
12441;SDS011;6285;48.804;9.220;2022-12-07T03:04:40;11.95;;;9.15;;
12441;SDS011;6285;48.804;9.220;2022-12-07T03:07:21;9.85;;;8.55;;
12441;SDS011;6285;48.804;9.220;2022-12-07T03:09:51;10.40;;;8.30;;
12441;SDS011;6285;48.804;9.220;2022-12-07T03:12:22;12.70;;;9.18;;
12441;SDS011;6285;48.804;9.220;2022-12-07T03:14:56;11.30;;;8.93;;
12441;SDS011;6285;48.804;9.220;2022-12-07T03:17:28;11.13;;;8.90;;
12441;SDS011;6285;48.804;9.220;2022-12-07T03:20:00;12.25;;;8.95;;
12441;SDS011;6285;48.804;9.220;2022-12-07T03:22:29;11.35;;;8.57;;
12441;SDS011;6285;48.804;9.220;2022-12-07T03:24:57;10.35;;;8.88;;
12441;SDS011;6285;48.804;9.220;2022-12-07T03:27:26;11.45;;;8.88;;
12441;SDS011;6285;48.804;9.220;2022-12-07T03:29:58;10.35;;;8.85;;
12441;SDS011;6285;48.804;9.220;2022-12-07T03:32:29;14.30;;;8.73;;
12441;SDS011;6285;48.804;9.220;2022-12-07T03:35:01;11.15;;;8.93;;
12441;SDS011;6285;48.804;9.220;2022-12-07T03:37:31;11.02;;;8.60;;
12441;SDS011;6285;48.804;9.220;2022-12-07T03:40:02;10.55;;;8.25;;
12441;SDS011;6285;48.804;9.220;2022-12-07T03:42:33;10.65;;;7.78;;
12441;SDS011;6285;48.804;9.220;2022-12-07T03:45:00;11.63;;;8.90;;
12441;SDS011;6285;48.804;9.220;2022-12-07T03:47:30;11.55;;;8.95;;
12441;SDS011;6285;48.804;9.220;2022-12-07T03:50:00;10.05;;;9.00;;
12441;SDS011;6285;48.804;9.220;2022-12-07T03:52:30;10.65;;;8.30;;
12441;SDS011;6285;48.804;9.220;2022-12-07T03:55:00;10.30;;;7.78;;
12441;SDS011;6285;48.804;9.220;2022-12-07T03:57:32;10.98;;;8.25;;
12441;SDS011;6285;48.804;9.220;2022-12-07T04:00:00;11.70;;;8.43;;
12441;SDS011;6285;48.804;9.220;2022-12-07T04:02:28;10.90;;;8.50;;
12441;SDS011;6285;48.804;9.220;2022-12-07T04:04:57;11.57;;;8.98;;
12441;SDS011;6285;48.804;9.220;2022-12-07T04:07:24;9.95;;;8.13;;
12441;SDS011;6285;48.804;9.220;2022-12-07T04:09:51;12.45;;;8.65;;
12441;SDS011;6285;48.804;9.220;2022-12-07T04:12:19;12.55;;;9.38;;
12441;SDS011;6285;48.804;9.220;2022-12-07T04:14:46;11.23;;;8.90;;
12441;SDS011;6285;48.804;9.220;2022-12-07T04:17:14;12.05;;;8.77;;
12441;SDS011;6285;48.804;9.220;2022-12-07T04:19:41;10.10;;;8.60;;
12441;SDS011;6285;48.804;9.220;2022-12-07T04:22:09;10.40;;;8.43;;
12441;SDS011;6285;48.804;9.220;2022-12-07T04:24:37;10.43;;;8.55;;
12441;SDS011;6285;48.804;9.220;2022-12-07T04:27:04;11.70;;;9.10;;
12441;SDS011;6285;48.804;9.220;2022-12-07T04:29:31;12.05;;;8.52;;
12441;SDS011;6285;48.804;9.220;2022-12-07T04:31:58;12.05;;;9.07;;
12441;SDS011;6285;48.804;9.220;2022-12-07T04:34:26;11.32;;;8.93;;
12441;SDS011;6285;48.804;9.220;2022-12-07T04:36:53;9.77;;;8.23;;
12441;SDS011;6285;48.804;9.220;2022-12-07T04:39:22;10.25;;;8.23;;
12441;SDS011;6285;48.804;9.220;2022-12-07T04:41:49;11.88;;;8.85;;
12441;SDS011;6285;48.804;9.220;2022-12-07T04:44:17;11.77;;;8.15;;
12441;SDS011;6285;48.804;9.220;2022-12-07T04:46:44;9.93;;;7.90;;
12441;SDS011;6285;48.804;9.220;2022-12-07T04:49:12;10.70;;;7.30;;
12441;SDS011;6285;48.804;9.220;2022-12-07T04:51:40;11.27;;;8.05;;
12441;SDS011;6285;48.804;9.220;2022-12-07T04:54:07;10.55;;;8.40;;
12441;SDS011;6285;48.804;9.220;2022-12-07T04:56:37;9.10;;;6.97;;
12441;SDS011;6285;48.804;9.220;2022-12-07T04:59:04;10.73;;;7.50;;
12441;SDS011;6285;48.804;9.220;2022-12-07T05:01:32;11.68;;;7.57;;
12441;SDS011;6285;48.804;9.220;2022-12-07T05:03:59;9.45;;;7.47;;
12441;SDS011;6285;48.804;9.220;2022-12-07T05:06:26;12.32;;;8.07;;
12441;SDS011;6285;48.804;9.220;2022-12-07T05:08:53;12.27;;;7.53;;
12441;SDS011;6285;48.804;9.220;2022-12-07T05:11:20;8.10;;;6.60;;
12441;SDS011;6285;48.804;9.220;2022-12-07T05:14:09;7.70;;;6.68;;
12441;SDS011;6285;48.804;9.220;2022-12-07T05:16:36;9.75;;;7.32;;
12441;SDS011;6285;48.804;9.220;2022-12-07T05:19:04;8.65;;;6.70;;
12441;SDS011;6285;48.804;9.220;2022-12-07T05:21:31;8.55;;;6.97;;
12441;SDS011;6285;48.804;9.220;2022-12-07T05:23:58;13.55;;;7.53;;
12441;SDS011;6285;48.804;9.220;2022-12-07T05:26:26;10.00;;;7.75;;
12441;SDS011;6285;48.804;9.220;2022-12-07T05:28:53;10.23;;;7.82;;
12441;SDS011;6285;48.804;9.220;2022-12-07T05:31:23;10.07;;;8.32;;
12441;SDS011;6285;48.804;9.220;2022-12-07T05:33:50;11.50;;;8.55;;
12441;SDS011;6285;48.804;9.220;2022-12-07T05:36:17;11.60;;;8.32;;
12441;SDS011;6285;48.804;9.220;2022-12-07T05:38:45;11.38;;;8.38;;
12441;SDS011;6285;48.804;9.220;2022-12-07T05:41:12;11.25;;;8.25;;
12441;SDS011;6285;48.804;9.220;2022-12-07T05:43:54;12.70;;;8.27;;
12441;SDS011;6285;48.804;9.220;2022-12-07T05:46:23;11.88;;;8.30;;
12441;SDS011;6285;48.804;9.220;2022-12-07T05:48:50;11.65;;;8.00;;
12441;SDS011;6285;48.804;9.220;2022-12-07T05:51:17;8.82;;;7.63;;
12441;SDS011;6285;48.804;9.220;2022-12-07T05:53:45;11.23;;;8.23;;
12441;SDS011;6285;48.804;9.220;2022-12-07T05:56:12;11.75;;;8.75;;
12441;SDS011;6285;48.804;9.220;2022-12-07T05:58:39;11.02;;;8.82;;
12441;SDS011;6285;48.804;9.220;2022-12-07T06:01:25;10.00;;;8.32;;
12441;SDS011;6285;48.804;9.220;2022-12-07T06:03:52;11.23;;;8.85;;
12441;SDS011;6285;48.804;9.220;2022-12-07T06:06:19;10.82;;;8.35;;
12441;SDS011;6285;48.804;9.220;2022-12-07T06:08:46;12.10;;;8.75;;
12441;SDS011;6285;48.804;9.220;2022-12-07T06:11:14;11.25;;;8.85;;
12441;SDS011;6285;48.804;9.220;2022-12-07T06:13:59;11.80;;;8.60;;
12441;SDS011;6285;48.804;9.220;2022-12-07T06:16:27;11.93;;;9.35;;
12441;SDS011;6285;48.804;9.220;2022-12-07T06:18:55;12.65;;;9.07;;
12441;SDS011;6285;48.804;9.220;2022-12-07T06:21:22;11.18;;;8.80;;
12441;SDS011;6285;48.804;9.220;2022-12-07T06:23:50;10.05;;;7.78;;
12441;SDS011;6285;48.804;9.220;2022-12-07T06:26:17;11.30;;;8.25;;
12441;SDS011;6285;48.804;9.220;2022-12-07T06:28:45;11.10;;;8.65;;
12441;SDS011;6285;48.804;9.220;2022-12-07T06:31:12;13.30;;;8.60;;
12441;SDS011;6285;48.804;9.220;2022-12-07T06:33:40;12.07;;;9.00;;
12441;SDS011;6285;48.804;9.220;2022-12-07T06:36:08;12.05;;;8.77;;
12441;SDS011;6285;48.804;9.220;2022-12-07T06:38:35;12.45;;;8.77;;
12441;SDS011;6285;48.804;9.220;2022-12-07T06:41:02;10.07;;;7.43;;
12441;SDS011;6285;48.804;9.220;2022-12-07T06:43:30;10.25;;;7.68;;
12441;SDS011;6285;48.804;9.220;2022-12-07T06:45:57;14.13;;;8.88;;
12441;SDS011;6285;48.804;9.220;2022-12-07T06:48:24;10.23;;;7.80;;
12441;SDS011;6285;48.804;9.220;2022-12-07T06:50:52;10.93;;;8.40;;
12441;SDS011;6285;48.804;9.220;2022-12-07T06:53:20;15.30;;;8.88;;
12441;SDS011;6285;48.804;9.220;2022-12-07T06:55:47;11.82;;;8.48;;
12441;SDS011;6285;48.804;9.220;2022-12-07T06:58:14;12.25;;;8.55;;
12441;SDS011;6285;48.804;9.220;2022-12-07T07:00:45;11.48;;;8.35;;
12441;SDS011;6285;48.804;9.220;2022-12-07T07:03:17;13.38;;;8.00;;
12441;SDS011;6285;48.804;9.220;2022-12-07T07:05:45;13.63;;;8.18;;
12441;SDS011;6285;48.804;9.220;2022-12-07T07:08:13;11.60;;;7.88;;
12441;SDS011;6285;48.804;9.220;2022-12-07T07:10:41;13.30;;;9.32;;
12441;SDS011;6285;48.804;9.220;2022-12-07T07:13:08;10.13;;;7.20;;
12441;SDS011;6285;48.804;9.220;2022-12-07T07:15:38;9.07;;;7.03;;
12441;SDS011;6285;48.804;9.220;2022-12-07T07:18:14;14.68;;;8.20;;
12441;SDS011;6285;48.804;9.220;2022-12-07T07:20:41;11.40;;;7.82;;
12441;SDS011;6285;48.804;9.220;2022-12-07T07:23:09;13.50;;;7.60;;
12441;SDS011;6285;48.804;9.220;2022-12-07T07:25:37;11.32;;;7.70;;
12441;SDS011;6285;48.804;9.220;2022-12-07T07:28:05;11.65;;;7.82;;
12441;SDS011;6285;48.804;9.220;2022-12-07T07:30:32;15.80;;;8.55;;
12441;SDS011;6285;48.804;9.220;2022-12-07T07:32:59;11.43;;;7.38;;
12441;SDS011;6285;48.804;9.220;2022-12-07T07:35:27;12.02;;;7.05;;
12441;SDS011;6285;48.804;9.220;2022-12-07T07:37:54;14.25;;;7.15;;
12441;SDS011;6285;48.804;9.220;2022-12-07T07:40:21;11.45;;;7.15;;
12441;SDS011;6285;48.804;9.220;2022-12-07T07:42:50;11.25;;;6.35;;
12441;SDS011;6285;48.804;9.220;2022-12-07T07:45:18;9.88;;;6.15;;
12441;SDS011;6285;48.804;9.220;2022-12-07T07:47:47;9.15;;;6.55;;
12441;SDS011;6285;48.804;9.220;2022-12-07T07:50:14;8.13;;;5.78;;
12441;SDS011;6285;48.804;9.220;2022-12-07T07:52:42;8.48;;;6.05;;
12441;SDS011;6285;48.804;9.220;2022-12-07T07:55:09;8.48;;;5.50;;
12441;SDS011;6285;48.804;9.220;2022-12-07T07:57:36;7.55;;;5.10;;
12441;SDS011;6285;48.804;9.220;2022-12-07T08:00:06;8.00;;;5.35;;
12441;SDS011;6285;48.804;9.220;2022-12-07T08:02:34;6.93;;;5.28;;
12441;SDS011;6285;48.804;9.220;2022-12-07T08:05:01;5.57;;;4.85;;
12441;SDS011;6285;48.804;9.220;2022-12-07T08:07:28;6.80;;;5.45;;
12441;SDS011;6285;48.804;9.220;2022-12-07T08:09:55;8.98;;;6.07;;
12441;SDS011;6285;48.804;9.220;2022-12-07T08:12:22;7.57;;;5.15;;
12441;SDS011;6285;48.804;9.220;2022-12-07T08:14:49;6.95;;;5.15;;
12441;SDS011;6285;48.804;9.220;2022-12-07T08:17:18;7.60;;;5.35;;
12441;SDS011;6285;48.804;9.220;2022-12-07T08:19:45;7.22;;;5.15;;
12441;SDS011;6285;48.804;9.220;2022-12-07T08:22:12;8.43;;;5.93;;
12441;SDS011;6285;48.804;9.220;2022-12-07T08:24:39;8.40;;;5.53;;
12441;SDS011;6285;48.804;9.220;2022-12-07T08:27:06;5.95;;;4.60;;
12441;SDS011;6285;48.804;9.220;2022-12-07T08:29:33;7.40;;;5.28;;
12441;SDS011;6285;48.804;9.220;2022-12-07T08:32:00;7.43;;;5.18;;
12441;SDS011;6285;48.804;9.220;2022-12-07T08:34:28;6.53;;;5.32;;
12441;SDS011;6285;48.804;9.220;2022-12-07T08:36:55;7.38;;;4.72;;
12441;SDS011;6285;48.804;9.220;2022-12-07T08:39:22;7.13;;;5.57;;
12441;SDS011;6285;48.804;9.220;2022-12-07T08:41:49;7.45;;;5.32;;
12441;SDS011;6285;48.804;9.220;2022-12-07T08:44:16;7.55;;;5.20;;
12441;SDS011;6285;48.804;9.220;2022-12-07T08:46:44;7.38;;;5.13;;
12441;SDS011;6285;48.804;9.220;2022-12-07T08:49:13;6.30;;;5.32;;
12441;SDS011;6285;48.804;9.220;2022-12-07T08:51:42;6.75;;;5.20;;
12441;SDS011;6285;48.804;9.220;2022-12-07T08:54:10;8.30;;;5.50;;
12441;SDS011;6285;48.804;9.220;2022-12-07T08:56:38;7.60;;;5.40;;
12441;SDS011;6285;48.804;9.220;2022-12-07T08:59:05;7.65;;;5.30;;
12441;SDS011;6285;48.804;9.220;2022-12-07T09:01:32;6.07;;;5.28;;
12441;SDS011;6285;48.804;9.220;2022-12-07T09:03:59;8.35;;;5.63;;
12441;SDS011;6285;48.804;9.220;2022-12-07T09:06:27;7.07;;;5.43;;
12441;SDS011;6285;48.804;9.220;2022-12-07T09:08:56;7.22;;;5.45;;
12441;SDS011;6285;48.804;9.220;2022-12-07T09:11:26;7.43;;;5.38;;
12441;SDS011;6285;48.804;9.220;2022-12-07T09:13:53;8.13;;;5.80;;
12441;SDS011;6285;48.804;9.220;2022-12-07T09:16:20;6.57;;;5.18;;
12441;SDS011;6285;48.804;9.220;2022-12-07T09:18:47;9.18;;;5.78;;
12441;SDS011;6285;48.804;9.220;2022-12-07T09:21:14;7.30;;;5.50;;
12441;SDS011;6285;48.804;9.220;2022-12-07T09:23:41;8.07;;;5.63;;
12441;SDS011;6285;48.804;9.220;2022-12-07T09:26:10;7.13;;;5.78;;
12441;SDS011;6285;48.804;9.220;2022-12-07T09:28:37;9.23;;;6.03;;
12441;SDS011;6285;48.804;9.220;2022-12-07T09:31:04;9.68;;;5.68;;
12441;SDS011;6285;48.804;9.220;2022-12-07T09:33:31;9.02;;;5.28;;
12441;SDS011;6285;48.804;9.220;2022-12-07T09:35:58;10.10;;;5.10;;
12441;SDS011;6285;48.804;9.220;2022-12-07T09:38:25;8.50;;;5.65;;
12441;SDS011;6285;48.804;9.220;2022-12-07T09:40:54;6.97;;;4.97;;
12441;SDS011;6285;48.804;9.220;2022-12-07T09:43:23;6.57;;;4.90;;
12441;SDS011;6285;48.804;9.220;2022-12-07T09:45:51;8.73;;;4.13;;
12441;SDS011;6285;48.804;9.220;2022-12-07T09:48:20;6.47;;;3.83;;
12441;SDS011;6285;48.804;9.220;2022-12-07T09:50:48;3.80;;;2.70;;
12441;SDS011;6285;48.804;9.220;2022-12-07T09:53:18;4.65;;;2.88;;
12441;SDS011;6285;48.804;9.220;2022-12-07T09:55:47;6.03;;;3.47;;
12441;SDS011;6285;48.804;9.220;2022-12-07T09:58:17;4.32;;;3.20;;
12441;SDS011;6285;48.804;9.220;2022-12-07T10:00:48;4.60;;;3.30;;
12441;SDS011;6285;48.804;9.220;2022-12-07T10:03:15;4.75;;;3.03;;
12441;SDS011;6285;48.804;9.220;2022-12-07T10:05:44;4.13;;;3.30;;
12441;SDS011;6285;48.804;9.220;2022-12-07T10:08:12;4.55;;;3.42;;
12441;SDS011;6285;48.804;9.220;2022-12-07T10:10:40;6.45;;;3.17;;
12441;SDS011;6285;48.804;9.220;2022-12-07T10:13:09;3.15;;;2.78;;
12441;SDS011;6285;48.804;9.220;2022-12-07T10:15:43;3.88;;;3.22;;
12441;SDS011;6285;48.804;9.220;2022-12-07T10:18:19;4.43;;;3.45;;
12441;SDS011;6285;48.804;9.220;2022-12-07T10:20:47;4.10;;;3.13;;
12441;SDS011;6285;48.804;9.220;2022-12-07T10:23:15;6.40;;;3.88;;
12441;SDS011;6285;48.804;9.220;2022-12-07T10:25:43;5.53;;;4.30;;
12441;SDS011;6285;48.804;9.220;2022-12-07T10:28:13;4.82;;;3.88;;
12441;SDS011;6285;48.804;9.220;2022-12-07T10:30:48;4.03;;;3.45;;
12441;SDS011;6285;48.804;9.220;2022-12-07T10:33:28;3.65;;;3.20;;
12441;SDS011;6285;48.804;9.220;2022-12-07T10:35:57;4.05;;;3.33;;
12441;SDS011;6285;48.804;9.220;2022-12-07T10:38:26;5.70;;;3.78;;
12441;SDS011;6285;48.804;9.220;2022-12-07T10:41:05;4.57;;;3.78;;
12441;SDS011;6285;48.804;9.220;2022-12-07T10:43:32;6.43;;;4.82;;
12441;SDS011;6285;48.804;9.220;2022-12-07T10:48:44;7.55;;;3.90;;
12441;SDS011;6285;48.804;9.220;2022-12-07T10:51:15;9.93;;;4.75;;
12441;SDS011;6285;48.804;9.220;2022-12-07T10:53:47;7.97;;;4.10;;
12441;SDS011;6285;48.804;9.220;2022-12-07T10:56:27;5.50;;;4.00;;
12441;SDS011;6285;48.804;9.220;2022-12-07T10:59:02;6.97;;;4.07;;
12441;SDS011;6285;48.804;9.220;2022-12-07T11:01:31;9.25;;;4.43;;
12441;SDS011;6285;48.804;9.220;2022-12-07T11:04:19;6.72;;;4.15;;
12441;SDS011;6285;48.804;9.220;2022-12-07T11:06:51;4.97;;;3.97;;
12441;SDS011;6285;48.804;9.220;2022-12-07T11:09:28;7.22;;;4.30;;
12441;SDS011;6285;48.804;9.220;2022-12-07T11:12:11;10.15;;;4.70;;
12441;SDS011;6285;48.804;9.220;2022-12-07T11:14:48;8.40;;;4.00;;
12441;SDS011;6285;48.804;9.220;2022-12-07T11:17:24;6.65;;;3.85;;
12441;SDS011;6285;48.804;9.220;2022-12-07T11:20:02;5.65;;;3.60;;
12441;SDS011;6285;48.804;9.220;2022-12-07T11:22:40;5.90;;;2.72;;
12441;SDS011;6285;48.804;9.220;2022-12-07T11:25:16;4.60;;;2.53;;
12441;SDS011;6285;48.804;9.220;2022-12-07T11:27:52;4.25;;;2.95;;
12441;SDS011;6285;48.804;9.220;2022-12-07T11:30:31;3.97;;;2.80;;
12441;SDS011;6285;48.804;9.220;2022-12-07T11:33:07;2.92;;;2.38;;
12441;SDS011;6285;48.804;9.220;2022-12-07T11:35:45;4.43;;;2.50;;
12441;SDS011;6285;48.804;9.220;2022-12-07T11:38:22;4.50;;;2.70;;
12441;SDS011;6285;48.804;9.220;2022-12-07T11:40:53;4.20;;;2.53;;
12441;SDS011;6285;48.804;9.220;2022-12-07T11:43:37;2.75;;;2.33;;
12441;SDS011;6285;48.804;9.220;2022-12-07T11:46:18;5.78;;;4.60;;
12441;SDS011;6285;48.804;9.220;2022-12-07T11:48:50;3.00;;;2.70;;
12441;SDS011;6285;48.804;9.220;2022-12-07T11:51:22;5.95;;;2.80;;
12441;SDS011;6285;48.804;9.220;2022-12-07T11:53:52;3.50;;;3.03;;
12441;SDS011;6285;48.804;9.220;2022-12-07T11:56:25;3.35;;;2.90;;
12441;SDS011;6285;48.804;9.220;2022-12-07T11:58:53;4.05;;;3.40;;
12441;SDS011;6285;48.804;9.220;2022-12-07T12:01:37;4.38;;;3.55;;
12441;SDS011;6285;48.804;9.220;2022-12-07T12:04:11;4.35;;;3.95;;
12441;SDS011;6285;48.804;9.220;2022-12-07T12:06:41;4.00;;;3.60;;
12441;SDS011;6285;48.804;9.220;2022-12-07T12:09:11;4.43;;;3.88;;
12441;SDS011;6285;48.804;9.220;2022-12-07T12:11:46;5.78;;;4.55;;
12441;SDS011;6285;48.804;9.220;2022-12-07T12:14:27;6.85;;;4.82;;
12441;SDS011;6285;48.804;9.220;2022-12-07T12:17:11;6.22;;;4.93;;
12441;SDS011;6285;48.804;9.220;2022-12-07T12:20:04;7.05;;;4.85;;
12441;SDS011;6285;48.804;9.220;2022-12-07T12:22:35;7.10;;;5.60;;
12441;SDS011;6285;48.804;9.220;2022-12-07T12:25:04;4.45;;;4.00;;
12441;SDS011;6285;48.804;9.220;2022-12-07T12:27:33;6.25;;;4.97;;
12441;SDS011;6285;48.804;9.220;2022-12-07T12:30:01;6.60;;;5.13;;
12441;SDS011;6285;48.804;9.220;2022-12-07T12:32:32;6.18;;;5.30;;
12441;SDS011;6285;48.804;9.220;2022-12-07T12:35:17;5.10;;;4.50;;
12441;SDS011;6285;48.804;9.220;2022-12-07T12:37:49;7.05;;;5.03;;
12441;SDS011;6285;48.804;9.220;2022-12-07T12:48:37;6.25;;;4.57;;
12441;SDS011;6285;48.804;9.220;2022-12-07T12:53:51;5.53;;;3.97;;
12441;SDS011;6285;48.804;9.220;2022-12-07T12:56:23;7.72;;;4.55;;
12441;SDS011;6285;48.804;9.220;2022-12-07T13:01:48;6.18;;;5.30;;
12441;SDS011;6285;48.804;9.220;2022-12-07T13:04:22;7.82;;;5.25;;
12441;SDS011;6285;48.804;9.220;2022-12-07T13:06:51;6.80;;;4.90;;
12441;SDS011;6285;48.804;9.220;2022-12-07T13:09:20;6.18;;;5.00;;
12441;SDS011;6285;48.804;9.220;2022-12-07T13:11:49;23.20;;;11.25;;
12441;SDS011;6285;48.804;9.220;2022-12-07T13:14:41;11.85;;;6.10;;
12441;SDS011;6285;48.804;9.220;2022-12-07T13:17:08;6.70;;;5.70;;
12441;SDS011;6285;48.804;9.220;2022-12-07T13:22:40;6.82;;;5.07;;
12441;SDS011;6285;48.804;9.220;2022-12-07T13:25:31;8.32;;;5.20;;
12441;SDS011;6285;48.804;9.220;2022-12-07T13:28:01;6.13;;;5.22;;
12441;SDS011;6285;48.804;9.220;2022-12-07T13:30:30;5.90;;;5.20;;
12441;SDS011;6285;48.804;9.220;2022-12-07T13:33:03;7.72;;;5.63;;
12441;SDS011;6285;48.804;9.220;2022-12-07T13:35:31;6.53;;;5.40;;
12441;SDS011;6285;48.804;9.220;2022-12-07T13:37:59;7.97;;;5.30;;
12441;SDS011;6285;48.804;9.220;2022-12-07T13:40:31;9.48;;;6.43;;
12441;SDS011;6285;48.804;9.220;2022-12-07T13:42:58;7.35;;;5.70;;
12441;SDS011;6285;48.804;9.220;2022-12-07T13:45:26;6.15;;;5.50;;
12441;SDS011;6285;48.804;9.220;2022-12-07T13:48:21;8.05;;;5.68;;
12441;SDS011;6285;48.804;9.220;2022-12-07T13:50:54;7.55;;;5.50;;
12441;SDS011;6285;48.804;9.220;2022-12-07T13:53:21;7.80;;;5.40;;
12441;SDS011;6285;48.804;9.220;2022-12-07T13:55:48;8.30;;;6.00;;
12441;SDS011;6285;48.804;9.220;2022-12-07T13:58:16;8.10;;;6.28;;
12441;SDS011;6285;48.804;9.220;2022-12-07T14:00:43;11.10;;;6.18;;
12441;SDS011;6285;48.804;9.220;2022-12-07T14:03:23;7.50;;;5.60;;
12441;SDS011;6285;48.804;9.220;2022-12-07T14:06:04;9.77;;;5.93;;
12441;SDS011;6285;48.804;9.220;2022-12-07T14:08:33;7.95;;;5.55;;
12441;SDS011;6285;48.804;9.220;2022-12-07T14:11:00;10.00;;;6.03;;
12441;SDS011;6285;48.804;9.220;2022-12-07T14:13:28;6.50;;;5.50;;
12441;SDS011;6285;48.804;9.220;2022-12-07T14:15:59;7.80;;;6.10;;
12441;SDS011;6285;48.804;9.220;2022-12-07T14:18:28;9.13;;;6.38;;
12441;SDS011;6285;48.804;9.220;2022-12-07T14:21:03;8.43;;;5.97;;
12441;SDS011;6285;48.804;9.220;2022-12-07T14:23:31;11.07;;;6.57;;
12441;SDS011;6285;48.804;9.220;2022-12-07T14:26:06;11.30;;;6.72;;
12441;SDS011;6285;48.804;9.220;2022-12-07T14:28:36;8.10;;;6.10;;
12441;SDS011;6285;48.804;9.220;2022-12-07T14:31:07;12.57;;;6.97;;
12441;SDS011;6285;48.804;9.220;2022-12-07T14:33:38;8.95;;;6.40;;
12441;SDS011;6285;48.804;9.220;2022-12-07T14:36:05;10.30;;;6.82;;
12441;SDS011;6285;48.804;9.220;2022-12-07T14:38:32;9.55;;;6.22;;
12441;SDS011;6285;48.804;9.220;2022-12-07T14:41:00;10.55;;;6.10;;
12441;SDS011;6285;48.804;9.220;2022-12-07T14:43:40;11.48;;;7.32;;
12441;SDS011;6285;48.804;9.220;2022-12-07T14:46:08;13.13;;;7.55;;
12441;SDS011;6285;48.804;9.220;2022-12-07T14:48:35;7.80;;;5.85;;
12441;SDS011;6285;48.804;9.220;2022-12-07T14:51:03;7.07;;;6.03;;
12441;SDS011;6285;48.804;9.220;2022-12-07T14:53:33;6.95;;;5.43;;
12441;SDS011;6285;48.804;9.220;2022-12-07T14:56:03;9.43;;;6.80;;
12441;SDS011;6285;48.804;9.220;2022-12-07T14:58:31;7.82;;;6.50;;
12441;SDS011;6285;48.804;9.220;2022-12-07T15:00:58;8.85;;;6.65;;
12441;SDS011;6285;48.804;9.220;2022-12-07T15:03:25;7.32;;;5.57;;
12441;SDS011;6285;48.804;9.220;2022-12-07T15:05:52;8.77;;;5.47;;
12441;SDS011;6285;48.804;9.220;2022-12-07T15:08:20;8.57;;;6.22;;
12441;SDS011;6285;48.804;9.220;2022-12-07T15:10:47;7.78;;;5.60;;
12441;SDS011;6285;48.804;9.220;2022-12-07T15:13:14;9.10;;;5.97;;
12441;SDS011;6285;48.804;9.220;2022-12-07T15:16:00;7.05;;;6.03;;
12441;SDS011;6285;48.804;9.220;2022-12-07T15:18:26;8.48;;;6.13;;
12441;SDS011;6285;48.804;9.220;2022-12-07T15:20:53;8.70;;;6.50;;
12441;SDS011;6285;48.804;9.220;2022-12-07T15:23:22;8.73;;;6.50;;
12441;SDS011;6285;48.804;9.220;2022-12-07T15:25:49;7.78;;;6.00;;
12441;SDS011;6285;48.804;9.220;2022-12-07T15:28:15;8.52;;;6.90;;
12441;SDS011;6285;48.804;9.220;2022-12-07T15:30:43;11.05;;;7.07;;
12441;SDS011;6285;48.804;9.220;2022-12-07T15:33:10;8.23;;;6.55;;